sensor_id;sensor_type;location;lat;lon;timestamp;P1;durP1;ratioP1;P2;durP2;ratioP2
19026;SDS011;9646;52.034;5.554;2023-11-21T00:01:31;18.58;;;10.27;;
19026;SDS011;9646;52.034;5.554;2023-11-21T00:03:59;19.65;;;11.23;;
19026;SDS011;9646;52.034;5.554;2023-11-21T00:06:26;16.90;;;10.90;;
19026;SDS011;9646;52.034;5.554;2023-11-21T00:08:55;21.95;;;11.23;;
19026;SDS011;9646;52.034;5.554;2023-11-21T00:11:22;20.60;;;11.90;;
19026;SDS011;9646;52.034;5.554;2023-11-21T00:13:51;20.48;;;11.20;;
19026;SDS011;9646;52.034;5.554;2023-11-21T00:16:18;17.13;;;10.32;;
19026;SDS011;9646;52.034;5.554;2023-11-21T00:18:47;17.85;;;10.90;;
19026;SDS011;9646;52.034;5.554;2023-11-21T00:21:14;19.75;;;11.43;;
19026;SDS011;9646;52.034;5.554;2023-11-21T00:23:41;15.07;;;8.98;;
19026;SDS011;9646;52.034;5.554;2023-11-21T00:26:08;10.27;;;5.80;;
19026;SDS011;9646;52.034;5.554;2023-11-21T00:28:35;16.92;;;9.38;;
19026;SDS011;9646;52.034;5.554;2023-11-21T00:31:04;16.65;;;9.88;;
19026;SDS011;9646;52.034;5.554;2023-11-21T00:33:31;12.73;;;8.00;;
19026;SDS011;9646;52.034;5.554;2023-11-21T00:35:58;12.48;;;7.78;;
19026;SDS011;9646;52.034;5.554;2023-11-21T00:38:26;13.50;;;8.43;;
19026;SDS011;9646;52.034;5.554;2023-11-21T00:40:53;14.70;;;8.40;;
19026;SDS011;9646;52.034;5.554;2023-11-21T00:43:21;16.55;;;9.27;;
19026;SDS011;9646;52.034;5.554;2023-11-21T00:45:48;15.13;;;8.75;;
19026;SDS011;9646;52.034;5.554;2023-11-21T00:48:17;13.32;;;8.48;;
19026;SDS011;9646;52.034;5.554;2023-11-21T00:50:44;12.20;;;8.30;;
19026;SDS011;9646;52.034;5.554;2023-11-21T00:53:11;15.00;;;8.00;;
19026;SDS011;9646;52.034;5.554;2023-11-21T00:55:38;14.75;;;8.43;;
19026;SDS011;9646;52.034;5.554;2023-11-21T00:58:06;13.13;;;7.82;;
19026;SDS011;9646;52.034;5.554;2023-11-21T01:00:33;13.30;;;8.48;;
19026;SDS011;9646;52.034;5.554;2023-11-21T01:03:00;14.32;;;8.77;;
19026;SDS011;9646;52.034;5.554;2023-11-21T01:05:28;13.52;;;8.65;;
19026;SDS011;9646;52.034;5.554;2023-11-21T01:07:55;12.77;;;8.30;;
19026;SDS011;9646;52.034;5.554;2023-11-21T01:10:22;13.77;;;7.88;;
19026;SDS011;9646;52.034;5.554;2023-11-21T01:12:49;13.60;;;8.68;;
19026;SDS011;9646;52.034;5.554;2023-11-21T01:15:17;12.20;;;7.78;;
19026;SDS011;9646;52.034;5.554;2023-11-21T01:17:44;12.40;;;7.65;;
19026;SDS011;9646;52.034;5.554;2023-11-21T01:20:11;12.00;;;7.75;;
19026;SDS011;9646;52.034;5.554;2023-11-21T01:22:39;15.38;;;7.82;;
19026;SDS011;9646;52.034;5.554;2023-11-21T01:25:06;9.73;;;6.53;;
19026;SDS011;9646;52.034;5.554;2023-11-21T01:27:34;11.85;;;6.90;;
19026;SDS011;9646;52.034;5.554;2023-11-21T01:30:02;12.40;;;7.03;;
19026;SDS011;9646;52.034;5.554;2023-11-21T01:32:29;10.00;;;6.57;;
19026;SDS011;9646;52.034;5.554;2023-11-21T01:34:56;10.13;;;7.05;;
19026;SDS011;9646;52.034;5.554;2023-11-21T01:37:24;11.43;;;7.15;;
19026;SDS011;9646;52.034;5.554;2023-11-21T01:39:54;10.65;;;6.60;;
19026;SDS011;9646;52.034;5.554;2023-11-21T01:42:21;9.68;;;6.43;;
19026;SDS011;9646;52.034;5.554;2023-11-21T01:44:48;9.50;;;6.57;;
19026;SDS011;9646;52.034;5.554;2023-11-21T01:47:15;11.55;;;6.35;;
19026;SDS011;9646;52.034;5.554;2023-11-21T01:49:43;10.65;;;6.47;;
19026;SDS011;9646;52.034;5.554;2023-11-21T01:52:10;11.25;;;6.43;;
19026;SDS011;9646;52.034;5.554;2023-11-21T01:54:38;9.10;;;6.03;;
19026;SDS011;9646;52.034;5.554;2023-11-21T01:57:06;9.32;;;6.43;;
19026;SDS011;9646;52.034;5.554;2023-11-21T01:59:34;10.85;;;6.63;;
19026;SDS011;9646;52.034;5.554;2023-11-21T02:02:02;9.80;;;6.18;;
19026;SDS011;9646;52.034;5.554;2023-11-21T02:04:30;18.67;;;6.60;;
19026;SDS011;9646;52.034;5.554;2023-11-21T02:06:57;10.70;;;6.63;;
19026;SDS011;9646;52.034;5.554;2023-11-21T02:09:25;9.95;;;6.53;;
19026;SDS011;9646;52.034;5.554;2023-11-21T02:11:52;7.65;;;6.20;;
19026;SDS011;9646;52.034;5.554;2023-11-21T02:14:21;10.57;;;6.85;;
19026;SDS011;9646;52.034;5.554;2023-11-21T02:16:50;10.73;;;7.15;;
19026;SDS011;9646;52.034;5.554;2023-11-21T02:19:17;9.65;;;6.80;;
19026;SDS011;9646;52.034;5.554;2023-11-21T02:21:47;11.55;;;6.22;;
19026;SDS011;9646;52.034;5.554;2023-11-21T02:24:17;8.85;;;6.57;;
19026;SDS011;9646;52.034;5.554;2023-11-21T02:26:44;10.55;;;7.05;;
19026;SDS011;9646;52.034;5.554;2023-11-21T02:29:12;11.32;;;6.25;;
19026;SDS011;9646;52.034;5.554;2023-11-21T02:31:41;10.27;;;6.38;;
19026;SDS011;9646;52.034;5.554;2023-11-21T02:34:12;11.00;;;6.55;;
19026;SDS011;9646;52.034;5.554;2023-11-21T02:36:40;10.15;;;6.53;;
19026;SDS011;9646;52.034;5.554;2023-11-21T02:39:07;9.35;;;5.90;;
19026;SDS011;9646;52.034;5.554;2023-11-21T02:41:36;8.93;;;6.43;;
19026;SDS011;9646;52.034;5.554;2023-11-21T02:44:04;9.27;;;6.47;;
19026;SDS011;9646;52.034;5.554;2023-11-21T02:46:32;7.70;;;5.88;;
19026;SDS011;9646;52.034;5.554;2023-11-21T02:48:59;10.38;;;6.57;;
19026;SDS011;9646;52.034;5.554;2023-11-21T02:51:26;9.30;;;5.95;;
19026;SDS011;9646;52.034;5.554;2023-11-21T02:53:53;12.13;;;7.30;;
19026;SDS011;9646;52.034;5.554;2023-11-21T02:56:23;9.63;;;6.78;;
19026;SDS011;9646;52.034;5.554;2023-11-21T02:58:52;10.57;;;7.55;;
19026;SDS011;9646;52.034;5.554;2023-11-21T03:01:19;9.10;;;6.57;;
19026;SDS011;9646;52.034;5.554;2023-11-21T03:03:46;11.88;;;7.68;;
19026;SDS011;9646;52.034;5.554;2023-11-21T03:06:16;10.77;;;7.10;;
19026;SDS011;9646;52.034;5.554;2023-11-21T03:08:43;10.95;;;7.40;;
19026;SDS011;9646;52.034;5.554;2023-11-21T03:11:10;9.27;;;6.95;;
19026;SDS011;9646;52.034;5.554;2023-11-21T03:13:38;13.32;;;7.30;;
19026;SDS011;9646;52.034;5.554;2023-11-21T03:16:07;9.00;;;6.68;;
19026;SDS011;9646;52.034;5.554;2023-11-21T03:18:35;8.82;;;6.00;;
19026;SDS011;9646;52.034;5.554;2023-11-21T03:21:03;10.35;;;6.55;;
19026;SDS011;9646;52.034;5.554;2023-11-21T03:23:30;11.32;;;6.53;;
19026;SDS011;9646;52.034;5.554;2023-11-21T03:25:57;14.02;;;7.03;;
19026;SDS011;9646;52.034;5.554;2023-11-21T03:28:25;11.52;;;6.60;;
19026;SDS011;9646;52.034;5.554;2023-11-21T03:30:52;11.10;;;7.07;;
19026;SDS011;9646;52.034;5.554;2023-11-21T03:33:21;10.95;;;6.68;;
19026;SDS011;9646;52.034;5.554;2023-11-21T03:35:48;11.65;;;7.18;;
19026;SDS011;9646;52.034;5.554;2023-11-21T03:38:15;11.65;;;7.00;;
19026;SDS011;9646;52.034;5.554;2023-11-21T03:40:42;10.98;;;5.72;;
19026;SDS011;9646;52.034;5.554;2023-11-21T03:43:09;11.10;;;6.57;;
19026;SDS011;9646;52.034;5.554;2023-11-21T03:45:37;8.88;;;6.35;;
19026;SDS011;9646;52.034;5.554;2023-11-21T03:48:05;10.73;;;6.88;;
19026;SDS011;9646;52.034;5.554;2023-11-21T03:50:34;9.45;;;6.53;;
19026;SDS011;9646;52.034;5.554;2023-11-21T03:53:00;11.13;;;7.45;;
19026;SDS011;9646;52.034;5.554;2023-11-21T03:55:27;10.23;;;6.55;;
19026;SDS011;9646;52.034;5.554;2023-11-21T03:57:56;7.93;;;6.15;;
19026;SDS011;9646;52.034;5.554;2023-11-21T04:00:23;10.23;;;6.65;;
19026;SDS011;9646;52.034;5.554;2023-11-21T04:02:51;9.43;;;6.53;;
19026;SDS011;9646;52.034;5.554;2023-11-21T04:05:19;11.18;;;7.35;;
19026;SDS011;9646;52.034;5.554;2023-11-21T04:10:17;11.63;;;7.15;;
19026;SDS011;9646;52.034;5.554;2023-11-21T04:12:44;8.88;;;6.10;;
19026;SDS011;9646;52.034;5.554;2023-11-21T04:15:11;11.82;;;6.60;;
19026;SDS011;9646;52.034;5.554;2023-11-21T04:17:39;9.93;;;6.45;;
19026;SDS011;9646;52.034;5.554;2023-11-21T04:20:07;9.05;;;6.65;;
19026;SDS011;9646;52.034;5.554;2023-11-21T04:22:36;9.48;;;6.18;;
19026;SDS011;9646;52.034;5.554;2023-11-21T04:25:03;12.57;;;6.20;;
19026;SDS011;9646;52.034;5.554;2023-11-21T04:27:32;9.60;;;6.22;;
19026;SDS011;9646;52.034;5.554;2023-11-21T04:29:59;9.30;;;6.05;;
19026;SDS011;9646;52.034;5.554;2023-11-21T04:32:26;13.43;;;6.60;;
19026;SDS011;9646;52.034;5.554;2023-11-21T04:34:53;12.65;;;6.50;;
19026;SDS011;9646;52.034;5.554;2023-11-21T04:37:20;8.90;;;6.15;;
19026;SDS011;9646;52.034;5.554;2023-11-21T04:39:47;9.30;;;6.22;;
19026;SDS011;9646;52.034;5.554;2023-11-21T04:42:15;10.85;;;5.82;;
19026;SDS011;9646;52.034;5.554;2023-11-21T04:44:43;14.27;;;7.47;;
19026;SDS011;9646;52.034;5.554;2023-11-21T04:47:10;10.10;;;7.03;;
19026;SDS011;9646;52.034;5.554;2023-11-21T04:49:37;11.43;;;6.57;;
19026;SDS011;9646;52.034;5.554;2023-11-21T04:52:04;9.55;;;5.93;;
19026;SDS011;9646;52.034;5.554;2023-11-21T04:54:32;10.75;;;6.28;;
19026;SDS011;9646;52.034;5.554;2023-11-21T04:57:00;11.57;;;6.82;;
19026;SDS011;9646;52.034;5.554;2023-11-21T04:59:27;11.95;;;6.82;;
19026;SDS011;9646;52.034;5.554;2023-11-21T05:01:56;11.63;;;6.22;;
19026;SDS011;9646;52.034;5.554;2023-11-21T05:04:25;8.75;;;5.85;;
19026;SDS011;9646;52.034;5.554;2023-11-21T05:06:52;11.55;;;6.20;;
19026;SDS011;9646;52.034;5.554;2023-11-21T05:09:19;10.45;;;6.18;;
19026;SDS011;9646;52.034;5.554;2023-11-21T05:11:47;12.00;;;6.18;;
19026;SDS011;9646;52.034;5.554;2023-11-21T05:14:14;11.48;;;7.07;;
19026;SDS011;9646;52.034;5.554;2023-11-21T05:16:41;10.80;;;5.85;;
19026;SDS011;9646;52.034;5.554;2023-11-21T05:19:10;9.68;;;5.82;;
19026;SDS011;9646;52.034;5.554;2023-11-21T05:21:38;10.05;;;5.95;;
19026;SDS011;9646;52.034;5.554;2023-11-21T05:24:05;10.65;;;6.60;;
19026;SDS011;9646;52.034;5.554;2023-11-21T05:26:32;9.93;;;6.20;;
19026;SDS011;9646;52.034;5.554;2023-11-21T05:28:59;11.40;;;6.72;;
19026;SDS011;9646;52.034;5.554;2023-11-21T05:31:26;11.45;;;6.68;;
19026;SDS011;9646;52.034;5.554;2023-11-21T05:33:53;8.93;;;5.85;;
19026;SDS011;9646;52.034;5.554;2023-11-21T05:36:22;13.75;;;6.70;;
19026;SDS011;9646;52.034;5.554;2023-11-21T05:38:49;9.38;;;5.88;;
19026;SDS011;9646;52.034;5.554;2023-11-21T05:41:16;12.13;;;7.35;;
19026;SDS011;9646;52.034;5.554;2023-11-21T05:43:43;10.95;;;6.45;;
19026;SDS011;9646;52.034;5.554;2023-11-21T05:46:10;10.65;;;6.22;;
19026;SDS011;9646;52.034;5.554;2023-11-21T05:48:38;10.05;;;6.32;;
19026;SDS011;9646;52.034;5.554;2023-11-21T05:51:06;13.45;;;5.95;;
19026;SDS011;9646;52.034;5.554;2023-11-21T05:53:34;8.32;;;5.93;;
19026;SDS011;9646;52.034;5.554;2023-11-21T05:56:01;13.60;;;6.68;;
19026;SDS011;9646;52.034;5.554;2023-11-21T05:58:29;11.90;;;6.10;;
19026;SDS011;9646;52.034;5.554;2023-11-21T06:00:56;11.90;;;6.63;;
19026;SDS011;9646;52.034;5.554;2023-11-21T06:03:23;11.90;;;7.00;;
19026;SDS011;9646;52.034;5.554;2023-11-21T06:05:50;12.63;;;6.15;;
19026;SDS011;9646;52.034;5.554;2023-11-21T06:08:17;9.77;;;5.45;;
19026;SDS011;9646;52.034;5.554;2023-11-21T06:10:46;12.50;;;5.75;;
19026;SDS011;9646;52.034;5.554;2023-11-21T06:13:14;9.68;;;5.68;;
19026;SDS011;9646;52.034;5.554;2023-11-21T06:15:41;12.48;;;6.13;;
19026;SDS011;9646;52.034;5.554;2023-11-21T06:18:08;11.32;;;6.22;;
19026;SDS011;9646;52.034;5.554;2023-11-21T06:20:36;11.13;;;5.70;;
19026;SDS011;9646;52.034;5.554;2023-11-21T06:23:03;10.32;;;5.72;;
19026;SDS011;9646;52.034;5.554;2023-11-21T06:25:30;9.10;;;5.40;;
19026;SDS011;9646;52.034;5.554;2023-11-21T06:28:00;10.70;;;6.35;;
19026;SDS011;9646;52.034;5.554;2023-11-21T06:30:27;12.15;;;5.75;;
19026;SDS011;9646;52.034;5.554;2023-11-21T06:32:54;10.88;;;6.30;;
19026;SDS011;9646;52.034;5.554;2023-11-21T06:35:21;10.77;;;6.60;;
19026;SDS011;9646;52.034;5.554;2023-11-21T06:37:48;10.35;;;7.03;;
19026;SDS011;9646;52.034;5.554;2023-11-21T06:40:17;12.85;;;7.03;;
19026;SDS011;9646;52.034;5.554;2023-11-21T06:42:44;13.98;;;8.10;;
19026;SDS011;9646;52.034;5.554;2023-11-21T06:45:13;11.25;;;7.13;;
19026;SDS011;9646;52.034;5.554;2023-11-21T06:47:41;11.48;;;7.22;;
19026;SDS011;9646;52.034;5.554;2023-11-21T06:50:08;12.65;;;7.15;;
19026;SDS011;9646;52.034;5.554;2023-11-21T06:52:35;10.52;;;7.28;;
19026;SDS011;9646;52.034;5.554;2023-11-21T06:55:03;12.80;;;7.95;;
19026;SDS011;9646;52.034;5.554;2023-11-21T06:57:33;10.88;;;7.05;;
19026;SDS011;9646;52.034;5.554;2023-11-21T07:00:00;11.07;;;7.35;;
19026;SDS011;9646;52.034;5.554;2023-11-21T07:02:29;11.70;;;7.35;;
19026;SDS011;9646;52.034;5.554;2023-11-21T07:04:56;11.88;;;7.35;;
19026;SDS011;9646;52.034;5.554;2023-11-21T07:07:23;16.05;;;9.05;;
19026;SDS011;9646;52.034;5.554;2023-11-21T07:09:50;13.65;;;8.63;;
19026;SDS011;9646;52.034;5.554;2023-11-21T07:12:17;11.32;;;7.80;;
19026;SDS011;9646;52.034;5.554;2023-11-21T07:14:44;12.55;;;8.05;;
19026;SDS011;9646;52.034;5.554;2023-11-21T07:17:11;15.20;;;9.57;;
19026;SDS011;9646;52.034;5.554;2023-11-21T07:19:40;16.38;;;9.50;;
19026;SDS011;9646;52.034;5.554;2023-11-21T07:22:08;12.48;;;8.45;;
19026;SDS011;9646;52.034;5.554;2023-11-21T07:24:36;12.55;;;8.05;;
19026;SDS011;9646;52.034;5.554;2023-11-21T07:27:03;12.57;;;8.57;;
19026;SDS011;9646;52.034;5.554;2023-11-21T07:29:30;13.13;;;7.72;;
19026;SDS011;9646;52.034;5.554;2023-11-21T07:31:58;14.07;;;8.10;;
19026;SDS011;9646;52.034;5.554;2023-11-21T07:34:25;13.43;;;7.45;;
19026;SDS011;9646;52.034;5.554;2023-11-21T07:36:54;11.48;;;7.70;;
19026;SDS011;9646;52.034;5.554;2023-11-21T07:39:21;12.95;;;7.95;;
19026;SDS011;9646;52.034;5.554;2023-11-21T07:41:48;13.82;;;8.30;;
19026;SDS011;9646;52.034;5.554;2023-11-21T07:44:15;10.25;;;7.32;;
19026;SDS011;9646;52.034;5.554;2023-11-21T07:46:44;10.55;;;6.93;;
19026;SDS011;9646;52.034;5.554;2023-11-21T07:49:11;11.75;;;7.28;;
19026;SDS011;9646;52.034;5.554;2023-11-21T07:51:40;12.23;;;7.30;;
19026;SDS011;9646;52.034;5.554;2023-11-21T07:54:09;12.13;;;7.22;;
19026;SDS011;9646;52.034;5.554;2023-11-21T07:56:36;11.90;;;6.95;;
19026;SDS011;9646;52.034;5.554;2023-11-21T07:59:03;11.85;;;6.88;;
19026;SDS011;9646;52.034;5.554;2023-11-21T08:01:30;8.75;;;6.20;;
19026;SDS011;9646;52.034;5.554;2023-11-21T08:03:58;12.60;;;6.97;;
19026;SDS011;9646;52.034;5.554;2023-11-21T08:06:28;10.80;;;6.55;;
19026;SDS011;9646;52.034;5.554;2023-11-21T08:08:55;11.88;;;6.75;;
19026;SDS011;9646;52.034;5.554;2023-11-21T08:11:24;9.70;;;6.70;;
19026;SDS011;9646;52.034;5.554;2023-11-21T08:13:54;10.75;;;6.10;;
19026;SDS011;9646;52.034;5.554;2023-11-21T08:16:21;12.18;;;6.43;;
19026;SDS011;9646;52.034;5.554;2023-11-21T08:18:49;10.57;;;6.43;;
19026;SDS011;9646;52.034;5.554;2023-11-21T08:21:16;12.32;;;6.75;;
19026;SDS011;9646;52.034;5.554;2023-11-21T08:23:44;9.57;;;6.72;;
19026;SDS011;9646;52.034;5.554;2023-11-21T08:26:11;16.75;;;6.32;;
19026;SDS011;9646;52.034;5.554;2023-11-21T08:28:40;8.40;;;5.82;;
19026;SDS011;9646;52.034;5.554;2023-11-21T08:31:07;10.68;;;6.20;;
19026;SDS011;9646;52.034;5.554;2023-11-21T08:33:34;11.52;;;5.88;;
19026;SDS011;9646;52.034;5.554;2023-11-21T08:36:01;11.60;;;6.18;;
19026;SDS011;9646;52.034;5.554;2023-11-21T08:38:33;12.63;;;6.20;;
19026;SDS011;9646;52.034;5.554;2023-11-21T08:41:02;13.40;;;7.35;;
19026;SDS011;9646;52.034;5.554;2023-11-21T08:43:29;12.50;;;6.50;;
19026;SDS011;9646;52.034;5.554;2023-11-21T08:45:58;11.32;;;6.25;;
19026;SDS011;9646;52.034;5.554;2023-11-21T08:48:25;8.93;;;4.65;;
19026;SDS011;9646;52.034;5.554;2023-11-21T08:50:53;8.45;;;4.22;;
19026;SDS011;9646;52.034;5.554;2023-11-21T08:53:20;7.80;;;4.13;;
19026;SDS011;9646;52.034;5.554;2023-11-21T08:55:47;6.80;;;4.40;;
19026;SDS011;9646;52.034;5.554;2023-11-21T08:58:15;9.23;;;5.85;;
19026;SDS011;9646;52.034;5.554;2023-11-21T09:00:42;10.20;;;4.60;;
19026;SDS011;9646;52.034;5.554;2023-11-21T09:03:11;9.30;;;4.60;;
19026;SDS011;9646;52.034;5.554;2023-11-21T09:05:38;8.00;;;4.20;;
19026;SDS011;9646;52.034;5.554;2023-11-21T09:08:05;7.30;;;4.05;;
19026;SDS011;9646;52.034;5.554;2023-11-21T09:10:33;8.18;;;4.55;;
19026;SDS011;9646;52.034;5.554;2023-11-21T09:13:02;7.60;;;4.00;;
19026;SDS011;9646;52.034;5.554;2023-11-21T09:15:29;7.07;;;3.63;;
19026;SDS011;9646;52.034;5.554;2023-11-21T09:17:56;5.80;;;3.95;;
19026;SDS011;9646;52.034;5.554;2023-11-21T09:20:24;8.13;;;3.50;;
19026;SDS011;9646;52.034;5.554;2023-11-21T09:22:51;5.75;;;3.58;;
19026;SDS011;9646;52.034;5.554;2023-11-21T09:25:19;5.93;;;3.47;;
19026;SDS011;9646;52.034;5.554;2023-11-21T09:27:46;7.15;;;4.10;;
19026;SDS011;9646;52.034;5.554;2023-11-21T09:30:13;7.75;;;4.30;;
19026;SDS011;9646;52.034;5.554;2023-11-21T09:32:41;6.57;;;3.30;;
19026;SDS011;9646;52.034;5.554;2023-11-21T09:35:10;6.78;;;3.88;;
19026;SDS011;9646;52.034;5.554;2023-11-21T09:37:40;9.25;;;3.67;;
19026;SDS011;9646;52.034;5.554;2023-11-21T09:40:09;7.53;;;4.32;;
19026;SDS011;9646;52.034;5.554;2023-11-21T09:42:40;6.93;;;3.38;;
19026;SDS011;9646;52.034;5.554;2023-11-21T09:45:09;7.22;;;4.20;;
19026;SDS011;9646;52.034;5.554;2023-11-21T09:47:39;5.50;;;3.67;;
19026;SDS011;9646;52.034;5.554;2023-11-21T09:50:06;7.13;;;3.80;;
19026;SDS011;9646;52.034;5.554;2023-11-21T09:52:36;8.13;;;5.22;;
19026;SDS011;9646;52.034;5.554;2023-11-21T09:55:06;6.18;;;3.38;;
19026;SDS011;9646;52.034;5.554;2023-11-21T09:57:38;5.05;;;3.58;;
19026;SDS011;9646;52.034;5.554;2023-11-21T10:00:06;10.73;;;4.85;;
19026;SDS011;9646;52.034;5.554;2023-11-21T10:02:37;5.82;;;3.72;;
19026;SDS011;9646;52.034;5.554;2023-11-21T10:05:06;6.60;;;4.07;;
19026;SDS011;9646;52.034;5.554;2023-11-21T10:07:34;6.38;;;3.65;;
19026;SDS011;9646;52.034;5.554;2023-11-21T10:10:02;6.38;;;3.50;;
19026;SDS011;9646;52.034;5.554;2023-11-21T10:12:30;10.68;;;5.55;;
19026;SDS011;9646;52.034;5.554;2023-11-21T10:14:58;6.60;;;3.97;;
19026;SDS011;9646;52.034;5.554;2023-11-21T10:17:26;6.82;;;4.03;;
19026;SDS011;9646;52.034;5.554;2023-11-21T10:19:56;6.47;;;4.18;;
19026;SDS011;9646;52.034;5.554;2023-11-21T10:22:23;7.25;;;5.55;;
19026;SDS011;9646;52.034;5.554;2023-11-21T10:24:50;5.05;;;3.72;;
19026;SDS011;9646;52.034;5.554;2023-11-21T10:27:18;7.72;;;4.80;;
19026;SDS011;9646;52.034;5.554;2023-11-21T10:29:47;5.80;;;4.07;;
19026;SDS011;9646;52.034;5.554;2023-11-21T10:32:14;6.00;;;3.72;;
19026;SDS011;9646;52.034;5.554;2023-11-21T10:34:41;9.27;;;5.93;;
19026;SDS011;9646;52.034;5.554;2023-11-21T10:37:10;7.60;;;4.70;;
19026;SDS011;9646;52.034;5.554;2023-11-21T10:39:38;7.50;;;4.82;;
19026;SDS011;9646;52.034;5.554;2023-11-21T10:42:07;5.55;;;4.60;;
19026;SDS011;9646;52.034;5.554;2023-11-21T10:44:35;7.47;;;6.07;;
19026;SDS011;9646;52.034;5.554;2023-11-21T10:47:04;6.90;;;5.60;;
19026;SDS011;9646;52.034;5.554;2023-11-21T10:49:31;7.28;;;4.20;;
19026;SDS011;9646;52.034;5.554;2023-11-21T10:51:58;7.00;;;5.38;;
19026;SDS011;9646;52.034;5.554;2023-11-21T10:54:25;7.95;;;4.82;;
19026;SDS011;9646;52.034;5.554;2023-11-21T10:56:53;7.80;;;5.00;;
19026;SDS011;9646;52.034;5.554;2023-11-21T10:59:22;4.57;;;3.75;;
19026;SDS011;9646;52.034;5.554;2023-11-21T11:01:51;5.93;;;4.22;;
19026;SDS011;9646;52.034;5.554;2023-11-21T11:04:20;7.57;;;3.10;;
19026;SDS011;9646;52.034;5.554;2023-11-21T11:06:54;6.10;;;3.90;;
19026;SDS011;9646;52.034;5.554;2023-11-21T11:09:21;7.55;;;4.75;;
19026;SDS011;9646;52.034;5.554;2023-11-21T11:11:48;6.07;;;4.80;;
19026;SDS011;9646;52.034;5.554;2023-11-21T11:14:15;5.15;;;3.97;;
19026;SDS011;9646;52.034;5.554;2023-11-21T11:16:44;4.00;;;2.95;;
19026;SDS011;9646;52.034;5.554;2023-11-21T11:19:12;4.18;;;3.20;;
19026;SDS011;9646;52.034;5.554;2023-11-21T11:21:45;5.97;;;3.65;;
19026;SDS011;9646;52.034;5.554;2023-11-21T11:24:29;6.22;;;3.33;;
19026;SDS011;9646;52.034;5.554;2023-11-21T11:27:01;5.15;;;2.97;;
19026;SDS011;9646;52.034;5.554;2023-11-21T11:29:33;6.32;;;3.38;;
19026;SDS011;9646;52.034;5.554;2023-11-21T11:32:05;3.70;;;3.30;;
19026;SDS011;9646;52.034;5.554;2023-11-21T11:34:35;5.25;;;3.35;;
19026;SDS011;9646;52.034;5.554;2023-11-21T11:37:05;3.92;;;2.53;;
19026;SDS011;9646;52.034;5.554;2023-11-21T11:39:35;3.22;;;2.75;;
19026;SDS011;9646;52.034;5.554;2023-11-21T11:42:03;3.38;;;2.53;;
19026;SDS011;9646;52.034;5.554;2023-11-21T11:44:50;4.53;;;2.75;;
19026;SDS011;9646;52.034;5.554;2023-11-21T11:47:19;3.80;;;3.03;;
19026;SDS011;9646;52.034;5.554;2023-11-21T11:49:56;5.57;;;2.50;;
19026;SDS011;9646;52.034;5.554;2023-11-21T11:55:10;3.67;;;2.45;;
19026;SDS011;9646;52.034;5.554;2023-11-21T11:57:38;3.67;;;2.80;;
19026;SDS011;9646;52.034;5.554;2023-11-21T12:00:15;3.83;;;2.50;;
19026;SDS011;9646;52.034;5.554;2023-11-21T12:02:45;3.03;;;2.60;;
19026;SDS011;9646;52.034;5.554;2023-11-21T12:05:13;4.78;;;3.08;;
19026;SDS011;9646;52.034;5.554;2023-11-21T12:07:47;3.33;;;2.50;;
19026;SDS011;9646;52.034;5.554;2023-11-21T12:10:16;3.72;;;2.60;;
19026;SDS011;9646;52.034;5.554;2023-11-21T12:12:45;4.38;;;2.85;;
19026;SDS011;9646;52.034;5.554;2023-11-21T12:15:12;3.67;;;2.55;;
19026;SDS011;9646;52.034;5.554;2023-11-21T12:17:40;4.72;;;2.78;;
19026;SDS011;9646;52.034;5.554;2023-11-21T12:20:09;5.72;;;3.00;;
19026;SDS011;9646;52.034;5.554;2023-11-21T12:22:41;4.28;;;2.60;;
19026;SDS011;9646;52.034;5.554;2023-11-21T12:25:09;4.22;;;2.83;;
19026;SDS011;9646;52.034;5.554;2023-11-21T12:27:42;5.35;;;3.28;;
19026;SDS011;9646;52.034;5.554;2023-11-21T12:30:11;3.33;;;2.33;;
19026;SDS011;9646;52.034;5.554;2023-11-21T12:32:40;2.78;;;1.95;;
19026;SDS011;9646;52.034;5.554;2023-11-21T12:35:08;3.95;;;2.75;;
19026;SDS011;9646;52.034;5.554;2023-11-21T12:37:35;4.35;;;3.20;;
19026;SDS011;9646;52.034;5.554;2023-11-21T12:40:03;3.00;;;2.40;;
19026;SDS011;9646;52.034;5.554;2023-11-21T12:42:31;4.22;;;3.45;;
19026;SDS011;9646;52.034;5.554;2023-11-21T12:45:18;4.43;;;2.92;;
19026;SDS011;9646;52.034;5.554;2023-11-21T12:47:46;5.03;;;2.97;;
19026;SDS011;9646;52.034;5.554;2023-11-21T12:50:13;4.90;;;2.92;;
19026;SDS011;9646;52.034;5.554;2023-11-21T12:52:41;4.43;;;2.88;;
19026;SDS011;9646;52.034;5.554;2023-11-21T12:55:12;3.33;;;2.55;;
19026;SDS011;9646;52.034;5.554;2023-11-21T12:57:41;3.88;;;2.88;;
19026;SDS011;9646;52.034;5.554;2023-11-21T13:00:09;3.83;;;2.92;;
19026;SDS011;9646;52.034;5.554;2023-11-21T13:02:42;3.38;;;2.63;;
19026;SDS011;9646;52.034;5.554;2023-11-21T13:05:09;5.40;;;3.45;;
19026;SDS011;9646;52.034;5.554;2023-11-21T13:07:46;4.53;;;3.50;;
19026;SDS011;9646;52.034;5.554;2023-11-21T13:10:15;5.35;;;3.70;;
19026;SDS011;9646;52.034;5.554;2023-11-21T13:12:43;3.10;;;2.38;;
19026;SDS011;9646;52.034;5.554;2023-11-21T13:15:13;4.65;;;3.55;;
19026;SDS011;9646;52.034;5.554;2023-11-21T13:17:43;5.13;;;3.38;;
19026;SDS011;9646;52.034;5.554;2023-11-21T13:20:10;3.22;;;2.50;;
19026;SDS011;9646;52.034;5.554;2023-11-21T13:22:44;4.85;;;3.22;;
19026;SDS011;9646;52.034;5.554;2023-11-21T13:25:11;7.40;;;5.18;;
19026;SDS011;9646;52.034;5.554;2023-11-21T13:27:39;5.25;;;3.97;;
19026;SDS011;9646;52.034;5.554;2023-11-21T13:30:08;4.53;;;3.40;;
19026;SDS011;9646;52.034;5.554;2023-11-21T13:32:35;6.40;;;5.05;;
19026;SDS011;9646;52.034;5.554;2023-11-21T13:35:04;5.47;;;4.32;;
19026;SDS011;9646;52.034;5.554;2023-11-21T13:37:37;6.65;;;4.50;;
19026;SDS011;9646;52.034;5.554;2023-11-21T13:40:05;4.82;;;3.47;;
19026;SDS011;9646;52.034;5.554;2023-11-21T13:42:39;5.60;;;3.90;;
19026;SDS011;9646;52.034;5.554;2023-11-21T13:45:07;4.13;;;2.80;;
19026;SDS011;9646;52.034;5.554;2023-11-21T13:47:34;3.10;;;2.47;;
19026;SDS011;9646;52.034;5.554;2023-11-21T13:50:05;5.18;;;3.42;;
19026;SDS011;9646;52.034;5.554;2023-11-21T13:52:42;3.55;;;2.95;;
19026;SDS011;9646;52.034;5.554;2023-11-21T13:55:10;5.97;;;4.45;;
19026;SDS011;9646;52.034;5.554;2023-11-21T13:57:40;4.57;;;3.60;;
19026;SDS011;9646;52.034;5.554;2023-11-21T14:00:10;5.65;;;4.47;;
19026;SDS011;9646;52.034;5.554;2023-11-21T14:02:58;5.45;;;3.75;;
19026;SDS011;9646;52.034;5.554;2023-11-21T14:05:27;4.57;;;3.40;;
19026;SDS011;9646;52.034;5.554;2023-11-21T14:07:56;3.67;;;2.90;;
19026;SDS011;9646;52.034;5.554;2023-11-21T14:10:28;3.42;;;2.45;;
19026;SDS011;9646;52.034;5.554;2023-11-21T14:13:02;5.28;;;3.38;;
19026;SDS011;9646;52.034;5.554;2023-11-21T14:15:30;5.15;;;2.80;;
19026;SDS011;9646;52.034;5.554;2023-11-21T14:17:58;3.95;;;2.75;;
19026;SDS011;9646;52.034;5.554;2023-11-21T14:20:29;4.90;;;3.10;;
19026;SDS011;9646;52.034;5.554;2023-11-21T14:22:56;2.60;;;1.92;;
19026;SDS011;9646;52.034;5.554;2023-11-21T14:25:23;3.50;;;2.25;;
19026;SDS011;9646;52.034;5.554;2023-11-21T14:27:50;3.55;;;2.55;;
19026;SDS011;9646;52.034;5.554;2023-11-21T14:30:17;3.55;;;2.85;;
19026;SDS011;9646;52.034;5.554;2023-11-21T14:32:47;3.47;;;2.30;;
19026;SDS011;9646;52.034;5.554;2023-11-21T14:35:15;3.17;;;2.47;;
19026;SDS011;9646;52.034;5.554;2023-11-21T14:37:44;5.50;;;3.47;;
19026;SDS011;9646;52.034;5.554;2023-11-21T14:40:11;4.80;;;3.55;;
19026;SDS011;9646;52.034;5.554;2023-11-21T14:42:41;4.28;;;3.10;;
19026;SDS011;9646;52.034;5.554;2023-11-21T14:45:09;5.30;;;3.63;;
19026;SDS011;9646;52.034;5.554;2023-11-21T14:47:38;5.70;;;3.90;;
19026;SDS011;9646;52.034;5.554;2023-11-21T14:50:09;3.97;;;2.85;;
19026;SDS011;9646;52.034;5.554;2023-11-21T14:53:06;4.65;;;3.17;;
19026;SDS011;9646;52.034;5.554;2023-11-21T14:55:33;4.13;;;3.15;;
19026;SDS011;9646;52.034;5.554;2023-11-21T14:58:15;6.63;;;3.70;;
19026;SDS011;9646;52.034;5.554;2023-11-21T15:00:50;4.78;;;3.05;;
19026;SDS011;9646;52.034;5.554;2023-11-21T15:03:22;3.88;;;2.95;;
19026;SDS011;9646;52.034;5.554;2023-11-21T15:06:06;5.28;;;3.05;;
19026;SDS011;9646;52.034;5.554;2023-11-21T15:08:49;3.67;;;2.47;;